sensor_id;sensor_type;location;lat;lon;timestamp;P1;durP1;ratioP1;P2;durP2;ratioP2
36599;SDS011;35385;55.668;37.508;2023-03-01T00:00:18;2.80;;;1.00;;
36599;SDS011;35385;55.668;37.508;2023-03-01T00:01:20;2.75;;;0.80;;
36599;SDS011;35385;55.668;37.508;2023-03-01T00:02:22;2.83;;;0.80;;
36599;SDS011;35385;55.668;37.508;2023-03-01T00:03:23;1.80;;;0.90;;
36599;SDS011;35385;55.668;37.508;2023-03-01T00:04:24;4.97;;;1.13;;
36599;SDS011;35385;55.668;37.508;2023-03-01T00:05:24;6.70;;;1.20;;
36599;SDS011;35385;55.668;37.508;2023-03-01T00:06:26;4.23;;;1.13;;
36599;SDS011;35385;55.668;37.508;2023-03-01T00:07:27;3.22;;;0.88;;
36599;SDS011;35385;55.668;37.508;2023-03-01T00:08:28;4.05;;;1.02;;
36599;SDS011;35385;55.668;37.508;2023-03-01T00:10:30;1.55;;;0.80;;
36599;SDS011;35385;55.668;37.508;2023-03-01T00:11:31;3.50;;;1.00;;
36599;SDS011;35385;55.668;37.508;2023-03-01T00:12:33;2.13;;;0.80;;
36599;SDS011;35385;55.668;37.508;2023-03-01T00:13:34;3.47;;;1.33;;
36599;SDS011;35385;55.668;37.508;2023-03-01T00:15:39;2.10;;;0.80;;
36599;SDS011;35385;55.668;37.508;2023-03-01T00:16:41;3.90;;;0.77;;
36599;SDS011;35385;55.668;37.508;2023-03-01T00:17:43;1.55;;;0.68;;
36599;SDS011;35385;55.668;37.508;2023-03-01T00:18:43;2.67;;;1.07;;
36599;SDS011;35385;55.668;37.508;2023-03-01T00:19:44;3.20;;;1.00;;
36599;SDS011;35385;55.668;37.508;2023-03-01T00:20:54;3.03;;;0.87;;
36599;SDS011;35385;55.668;37.508;2023-03-01T00:21:56;1.95;;;0.70;;
36599;SDS011;35385;55.668;37.508;2023-03-01T00:22:56;1.83;;;0.70;;
36599;SDS011;35385;55.668;37.508;2023-03-01T00:23:57;2.07;;;0.83;;
36599;SDS011;35385;55.668;37.508;2023-03-01T00:24:58;3.20;;;1.00;;
36599;SDS011;35385;55.668;37.508;2023-03-01T00:25:58;1.73;;;0.80;;
36599;SDS011;35385;55.668;37.508;2023-03-01T00:26:59;2.00;;;0.90;;
36599;SDS011;35385;55.668;37.508;2023-03-01T00:28:00;1.80;;;0.73;;
36599;SDS011;35385;55.668;37.508;2023-03-01T00:29:00;2.77;;;0.80;;
36599;SDS011;35385;55.668;37.508;2023-03-01T00:30:01;2.03;;;0.70;;
36599;SDS011;35385;55.668;37.508;2023-03-01T00:31:09;2.03;;;0.80;;
36599;SDS011;35385;55.668;37.508;2023-03-01T00:32:12;2.47;;;0.95;;
36599;SDS011;35385;55.668;37.508;2023-03-01T00:33:12;1.53;;;0.80;;
36599;SDS011;35385;55.668;37.508;2023-03-01T00:34:13;3.42;;;0.77;;
36599;SDS011;35385;55.668;37.508;2023-03-01T00:35:14;1.57;;;0.60;;
36599;SDS011;35385;55.668;37.508;2023-03-01T00:36:15;2.63;;;1.03;;
36599;SDS011;35385;55.668;37.508;2023-03-01T00:37:16;1.95;;;0.80;;
36599;SDS011;35385;55.668;37.508;2023-03-01T00:38:16;2.90;;;0.97;;
36599;SDS011;35385;55.668;37.508;2023-03-01T00:39:17;2.13;;;0.90;;
36599;SDS011;35385;55.668;37.508;2023-03-01T00:40:18;2.93;;;0.87;;
36599;SDS011;35385;55.668;37.508;2023-03-01T00:41:19;4.77;;;0.77;;
36599;SDS011;35385;55.668;37.508;2023-03-01T00:42:20;3.85;;;0.73;;
36599;SDS011;35385;55.668;37.508;2023-03-01T00:43:22;2.50;;;1.00;;
36599;SDS011;35385;55.668;37.508;2023-03-01T00:44:22;3.00;;;0.90;;
36599;SDS011;35385;55.668;37.508;2023-03-01T00:45:23;2.00;;;0.80;;
36599;SDS011;35385;55.668;37.508;2023-03-01T00:46:25;2.08;;;0.80;;
36599;SDS011;35385;55.668;37.508;2023-03-01T00:47:29;1.45;;;0.77;;
36599;SDS011;35385;55.668;37.508;2023-03-01T00:48:30;3.78;;;1.00;;
36599;SDS011;35385;55.668;37.508;2023-03-01T00:49:30;3.10;;;1.05;;
36599;SDS011;35385;55.668;37.508;2023-03-01T00:50:31;2.03;;;0.77;;
36599;SDS011;35385;55.668;37.508;2023-03-01T00:51:32;4.63;;;0.90;;
36599;SDS011;35385;55.668;37.508;2023-03-01T00:53:34;2.65;;;0.80;;
36599;SDS011;35385;55.668;37.508;2023-03-01T00:55:36;2.35;;;0.80;;
36599;SDS011;35385;55.668;37.508;2023-03-01T00:56:37;3.72;;;0.80;;
36599;SDS011;35385;55.668;37.508;2023-03-01T00:57:37;2.53;;;0.90;;
36599;SDS011;35385;55.668;37.508;2023-03-01T00:58:38;3.10;;;1.15;;
36599;SDS011;35385;55.668;37.508;2023-03-01T00:59:39;1.33;;;0.93;;
36599;SDS011;35385;55.668;37.508;2023-03-01T01:00:40;2.63;;;0.90;;
36599;SDS011;35385;55.668;37.508;2023-03-01T01:01:40;2.97;;;1.07;;
36599;SDS011;35385;55.668;37.508;2023-03-01T01:02:41;3.72;;;0.95;;
36599;SDS011;35385;55.668;37.508;2023-03-01T01:03:42;3.63;;;1.00;;
36599;SDS011;35385;55.668;37.508;2023-03-01T01:04:44;3.28;;;0.95;;
36599;SDS011;35385;55.668;37.508;2023-03-01T01:05:44;3.08;;;0.98;;
36599;SDS011;35385;55.668;37.508;2023-03-01T01:06:45;3.83;;;1.05;;
36599;SDS011;35385;55.668;37.508;2023-03-01T01:07:47;2.33;;;0.80;;
36599;SDS011;35385;55.668;37.508;2023-03-01T01:08:48;4.60;;;1.17;;
36599;SDS011;35385;55.668;37.508;2023-03-01T01:09:50;4.05;;;0.98;;
36599;SDS011;35385;55.668;37.508;2023-03-01T01:10:50;4.77;;;0.97;;
36599;SDS011;35385;55.668;37.508;2023-03-01T01:11:51;2.57;;;0.90;;
36599;SDS011;35385;55.668;37.508;2023-03-01T01:12:52;2.38;;;0.85;;
36599;SDS011;35385;55.668;37.508;2023-03-01T01:13:52;1.50;;;0.70;;
36599;SDS011;35385;55.668;37.508;2023-03-01T01:14:53;2.35;;;0.98;;
36599;SDS011;35385;55.668;37.508;2023-03-01T01:15:54;3.63;;;1.00;;
36599;SDS011;35385;55.668;37.508;2023-03-01T01:16:54;2.00;;;0.80;;
36599;SDS011;35385;55.668;37.508;2023-03-01T01:17:55;1.70;;;1.00;;
36599;SDS011;35385;55.668;37.508;2023-03-01T01:18:56;2.90;;;1.30;;
36599;SDS011;35385;55.668;37.508;2023-03-01T01:19:57;1.60;;;0.88;;
36599;SDS011;35385;55.668;37.508;2023-03-01T01:20:57;2.07;;;0.80;;
36599;SDS011;35385;55.668;37.508;2023-03-01T01:22:02;3.55;;;0.90;;
36599;SDS011;35385;55.668;37.508;2023-03-01T01:23:04;2.33;;;1.02;;
36599;SDS011;35385;55.668;37.508;2023-03-01T01:24:06;2.95;;;0.93;;
36599;SDS011;35385;55.668;37.508;2023-03-01T01:25:07;2.92;;;0.98;;
36599;SDS011;35385;55.668;37.508;2023-03-01T01:26:16;3.38;;;0.95;;
36599;SDS011;35385;55.668;37.508;2023-03-01T01:27:22;2.08;;;0.90;;
36599;SDS011;35385;55.668;37.508;2023-03-01T01:28:22;1.47;;;0.80;;
36599;SDS011;35385;55.668;37.508;2023-03-01T01:29:23;4.40;;;0.90;;
36599;SDS011;35385;55.668;37.508;2023-03-01T01:30:24;2.73;;;0.97;;
36599;SDS011;35385;55.668;37.508;2023-03-01T01:31:25;2.57;;;1.00;;
36599;SDS011;35385;55.668;37.508;2023-03-01T01:32:28;1.30;;;0.73;;
36599;SDS011;35385;55.668;37.508;2023-03-01T01:33:28;0.93;;;0.70;;
36599;SDS011;35385;55.668;37.508;2023-03-01T01:34:29;3.55;;;1.08;;
36599;SDS011;35385;55.668;37.508;2023-03-01T01:35:30;4.00;;;0.90;;
36599;SDS011;35385;55.668;37.508;2023-03-01T01:36:31;3.20;;;0.90;;
36599;SDS011;35385;55.668;37.508;2023-03-01T01:37:31;2.55;;;0.80;;
36599;SDS011;35385;55.668;37.508;2023-03-01T01:38:33;2.22;;;0.90;;
36599;SDS011;35385;55.668;37.508;2023-03-01T01:39:34;3.00;;;0.77;;
36599;SDS011;35385;55.668;37.508;2023-03-01T01:40:42;4.60;;;1.27;;
36599;SDS011;35385;55.668;37.508;2023-03-01T01:41:43;3.08;;;0.85;;
36599;SDS011;35385;55.668;37.508;2023-03-01T01:42:44;4.73;;;0.70;;
36599;SDS011;35385;55.668;37.508;2023-03-01T01:43:46;3.03;;;0.80;;
36599;SDS011;35385;55.668;37.508;2023-03-01T01:45:15;1.77;;;0.75;;
36599;SDS011;35385;55.668;37.508;2023-03-01T01:46:30;5.97;;;1.25;;
36599;SDS011;35385;55.668;37.508;2023-03-01T01:47:33;1.98;;;1.10;;
36599;SDS011;35385;55.668;37.508;2023-03-01T01:48:40;1.97;;;0.80;;
36599;SDS011;35385;55.668;37.508;2023-03-01T01:50:58;3.15;;;0.90;;
36599;SDS011;35385;55.668;37.508;2023-03-01T01:53:15;1.90;;;1.10;;
36599;SDS011;35385;55.668;37.508;2023-03-01T01:54:25;2.20;;;1.05;;
36599;SDS011;35385;55.668;37.508;2023-03-01T01:55:49;2.08;;;0.80;;
36599;SDS011;35385;55.668;37.508;2023-03-01T01:57:00;3.25;;;0.90;;
36599;SDS011;35385;55.668;37.508;2023-03-01T01:58:05;3.35;;;1.10;;
36599;SDS011;35385;55.668;37.508;2023-03-01T01:59:11;1.73;;;0.70;;
36599;SDS011;35385;55.668;37.508;2023-03-01T02:00:14;2.92;;;0.80;;
36599;SDS011;35385;55.668;37.508;2023-03-01T02:01:17;2.70;;;1.00;;
36599;SDS011;35385;55.668;37.508;2023-03-01T02:02:18;2.80;;;0.80;;
36599;SDS011;35385;55.668;37.508;2023-03-01T02:03:24;2.95;;;0.98;;
36599;SDS011;35385;55.668;37.508;2023-03-01T02:04:37;2.00;;;1.00;;
36599;SDS011;35385;55.668;37.508;2023-03-01T02:06:57;2.42;;;0.90;;
36599;SDS011;35385;55.668;37.508;2023-03-01T02:08:02;1.27;;;0.82;;
36599;SDS011;35385;55.668;37.508;2023-03-01T02:09:11;2.97;;;1.05;;
36599;SDS011;35385;55.668;37.508;2023-03-01T02:10:14;1.75;;;0.90;;
36599;SDS011;35385;55.668;37.508;2023-03-01T02:12:18;2.58;;;0.90;;
36599;SDS011;35385;55.668;37.508;2023-03-01T02:13:23;1.35;;;0.85;;
36599;SDS011;35385;55.668;37.508;2023-03-01T02:14:24;5.73;;;1.10;;
36599;SDS011;35385;55.668;37.508;2023-03-01T02:15:24;4.37;;;0.97;;
36599;SDS011;35385;55.668;37.508;2023-03-01T02:16:26;1.95;;;0.70;;
36599;SDS011;35385;55.668;37.508;2023-03-01T02:17:27;2.42;;;1.15;;
36599;SDS011;35385;55.668;37.508;2023-03-01T02:18:27;4.83;;;1.03;;
36599;SDS011;35385;55.668;37.508;2023-03-01T02:22:14;4.40;;;1.17;;
36599;SDS011;35385;55.668;37.508;2023-03-01T02:23:22;2.85;;;1.10;;
36599;SDS011;35385;55.668;37.508;2023-03-01T02:25:44;3.47;;;1.20;;
36599;SDS011;35385;55.668;37.508;2023-03-01T02:27:07;3.08;;;1.00;;
36599;SDS011;35385;55.668;37.508;2023-03-01T02:29:15;3.95;;;1.08;;
36599;SDS011;35385;55.668;37.508;2023-03-01T02:30:17;2.38;;;1.20;;
36599;SDS011;35385;55.668;37.508;2023-03-01T02:31:19;3.05;;;1.25;;
36599;SDS011;35385;55.668;37.508;2023-03-01T02:32:40;4.80;;;1.00;;
36599;SDS011;35385;55.668;37.508;2023-03-01T02:33:42;5.82;;;1.30;;
36599;SDS011;35385;55.668;37.508;2023-03-01T02:34:44;4.05;;;1.00;;
36599;SDS011;35385;55.668;37.508;2023-03-01T02:35:44;2.53;;;1.00;;
36599;SDS011;35385;55.668;37.508;2023-03-01T02:36:47;5.80;;;1.20;;
36599;SDS011;35385;55.668;37.508;2023-03-01T02:37:50;2.50;;;0.95;;
36599;SDS011;35385;55.668;37.508;2023-03-01T02:38:51;2.23;;;1.03;;
36599;SDS011;35385;55.668;37.508;2023-03-01T02:39:59;2.30;;;0.90;;
36599;SDS011;35385;55.668;37.508;2023-03-01T02:41:05;2.05;;;0.98;;
36599;SDS011;35385;55.668;37.508;2023-03-01T02:42:09;3.22;;;1.10;;
36599;SDS011;35385;55.668;37.508;2023-03-01T02:43:13;2.25;;;1.00;;
36599;SDS011;35385;55.668;37.508;2023-03-01T02:44:15;3.67;;;1.10;;
36599;SDS011;35385;55.668;37.508;2023-03-01T02:45:16;4.32;;;1.52;;
36599;SDS011;35385;55.668;37.508;2023-03-01T02:46:20;2.47;;;0.98;;
36599;SDS011;35385;55.668;37.508;2023-03-01T02:47:22;3.10;;;1.10;;
36599;SDS011;35385;55.668;37.508;2023-03-01T02:48:23;5.72;;;1.20;;
36599;SDS011;35385;55.668;37.508;2023-03-01T02:49:30;3.03;;;1.07;;
36599;SDS011;35385;55.668;37.508;2023-03-01T02:52:07;3.35;;;0.95;;
36599;SDS011;35385;55.668;37.508;2023-03-01T02:55:51;2.55;;;0.93;;
36599;SDS011;35385;55.668;37.508;2023-03-01T02:56:52;2.43;;;1.30;;
36599;SDS011;35385;55.668;37.508;2023-03-01T02:57:53;4.97;;;1.23;;
36599;SDS011;35385;55.668;37.508;2023-03-01T02:58:55;3.53;;;1.17;;
36599;SDS011;35385;55.668;37.508;2023-03-01T03:00:05;3.78;;;1.40;;
36599;SDS011;35385;55.668;37.508;2023-03-01T03:01:09;2.28;;;1.05;;
36599;SDS011;35385;55.668;37.508;2023-03-01T03:02:23;3.67;;;1.00;;
36599;SDS011;35385;55.668;37.508;2023-03-01T03:03:37;4.65;;;0.80;;
36599;SDS011;35385;55.668;37.508;2023-03-01T03:04:38;4.13;;;1.00;;
36599;SDS011;35385;55.668;37.508;2023-03-01T03:05:39;2.80;;;1.20;;
36599;SDS011;35385;55.668;37.508;2023-03-01T03:06:39;1.83;;;0.90;;
36599;SDS011;35385;55.668;37.508;2023-03-01T03:08:43;3.00;;;1.00;;
36599;SDS011;35385;55.668;37.508;2023-03-01T03:09:44;4.20;;;1.30;;
36599;SDS011;35385;55.668;37.508;2023-03-01T03:10:44;3.23;;;1.10;;
36599;SDS011;35385;55.668;37.508;2023-03-01T03:11:45;2.78;;;1.05;;
36599;SDS011;35385;55.668;37.508;2023-03-01T03:12:49;5.17;;;1.20;;
36599;SDS011;35385;55.668;37.508;2023-03-01T03:13:51;5.38;;;1.30;;
36599;SDS011;35385;55.668;37.508;2023-03-01T03:14:52;2.50;;;1.10;;
36599;SDS011;35385;55.668;37.508;2023-03-01T03:15:52;3.47;;;1.10;;
36599;SDS011;35385;55.668;37.508;2023-03-01T03:16:53;5.13;;;1.00;;
36599;SDS011;35385;55.668;37.508;2023-03-01T03:17:53;7.17;;;1.27;;
36599;SDS011;35385;55.668;37.508;2023-03-01T03:18:54;4.47;;;1.17;;
36599;SDS011;35385;55.668;37.508;2023-03-01T03:20:06;4.43;;;2.53;;
36599;SDS011;35385;55.668;37.508;2023-03-01T03:21:11;3.22;;;1.30;;
36599;SDS011;35385;55.668;37.508;2023-03-01T03:22:13;4.80;;;1.33;;
36599;SDS011;35385;55.668;37.508;2023-03-01T03:23:14;2.58;;;1.25;;
36599;SDS011;35385;55.668;37.508;2023-03-01T03:24:14;3.73;;;1.30;;
36599;SDS011;35385;55.668;37.508;2023-03-01T03:25:16;3.58;;;1.10;;
36599;SDS011;35385;55.668;37.508;2023-03-01T03:26:17;2.65;;;1.02;;
36599;SDS011;35385;55.668;37.508;2023-03-01T03:27:18;2.87;;;1.20;;
36599;SDS011;35385;55.668;37.508;2023-03-01T03:28:18;2.45;;;1.17;;
36599;SDS011;35385;55.668;37.508;2023-03-01T03:29:19;3.27;;;1.10;;
36599;SDS011;35385;55.668;37.508;2023-03-01T03:30:20;2.70;;;1.00;;
36599;SDS011;35385;55.668;37.508;2023-03-01T03:31:21;5.82;;;1.33;;
36599;SDS011;35385;55.668;37.508;2023-03-01T03:32:22;3.07;;;1.20;;
36599;SDS011;35385;55.668;37.508;2023-03-01T03:33:22;4.07;;;1.40;;
36599;SDS011;35385;55.668;37.508;2023-03-01T03:34:23;4.50;;;1.30;;
36599;SDS011;35385;55.668;37.508;2023-03-01T03:36:31;3.33;;;1.02;;
36599;SDS011;35385;55.668;37.508;2023-03-01T03:37:32;3.60;;;1.10;;
36599;SDS011;35385;55.668;37.508;2023-03-01T03:38:58;2.65;;;0.95;;
36599;SDS011;35385;55.668;37.508;2023-03-01T03:39:59;4.33;;;1.20;;
36599;SDS011;35385;55.668;37.508;2023-03-01T03:41:01;3.53;;;1.20;;
36599;SDS011;35385;55.668;37.508;2023-03-01T03:42:04;2.35;;;1.27;;
36599;SDS011;35385;55.668;37.508;2023-03-01T03:43:05;3.10;;;1.03;;
36599;SDS011;35385;55.668;37.508;2023-03-01T03:44:08;5.22;;;1.27;;
36599;SDS011;35385;55.668;37.508;2023-03-01T03:45:09;3.47;;;1.30;;
36599;SDS011;35385;55.668;37.508;2023-03-01T03:46:10;4.50;;;1.50;;
36599;SDS011;35385;55.668;37.508;2023-03-01T03:47:11;4.18;;;1.20;;
36599;SDS011;35385;55.668;37.508;2023-03-01T03:48:12;4.93;;;1.20;;
36599;SDS011;35385;55.668;37.508;2023-03-01T03:49:13;4.90;;;1.10;;
36599;SDS011;35385;55.668;37.508;2023-03-01T03:50:14;3.80;;;1.40;;
36599;SDS011;35385;55.668;37.508;2023-03-01T03:51:17;3.63;;;1.20;;
36599;SDS011;35385;55.668;37.508;2023-03-01T03:52:18;4.88;;;1.25;;
36599;SDS011;35385;55.668;37.508;2023-03-01T03:53:19;3.93;;;1.27;;
36599;SDS011;35385;55.668;37.508;2023-03-01T03:54:20;7.13;;;1.25;;
36599;SDS011;35385;55.668;37.508;2023-03-01T03:55:21;7.03;;;1.27;;
36599;SDS011;35385;55.668;37.508;2023-03-01T03:56:22;4.25;;;1.30;;
36599;SDS011;35385;55.668;37.508;2023-03-01T03:57:26;4.47;;;1.50;;
36599;SDS011;35385;55.668;37.508;2023-03-01T03:58:26;2.70;;;1.00;;
36599;SDS011;35385;55.668;37.508;2023-03-01T03:59:27;6.45;;;1.25;;
36599;SDS011;35385;55.668;37.508;2023-03-01T04:00:27;3.93;;;1.40;;
36599;SDS011;35385;55.668;37.508;2023-03-01T04:01:29;8.02;;;2.50;;
36599;SDS011;35385;55.668;37.508;2023-03-01T04:02:30;14.85;;;6.68;;
36599;SDS011;35385;55.668;37.508;2023-03-01T04:03:31;4.05;;;1.45;;
36599;SDS011;35385;55.668;37.508;2023-03-01T04:04:32;5.28;;;1.00;;
36599;SDS011;35385;55.668;37.508;2023-03-01T04:05:33;3.93;;;1.63;;
36599;SDS011;35385;55.668;37.508;2023-03-01T04:06:35;5.90;;;1.40;;
36599;SDS011;35385;55.668;37.508;2023-03-01T04:07:36;5.37;;;1.30;;
36599;SDS011;35385;55.668;37.508;2023-03-01T04:08:37;3.03;;;1.25;;
36599;SDS011;35385;55.668;37.508;2023-03-01T04:09:37;5.07;;;2.03;;
36599;SDS011;35385;55.668;37.508;2023-03-01T04:10:44;3.00;;;1.40;;
36599;SDS011;35385;55.668;37.508;2023-03-01T04:11:47;3.38;;;1.17;;
36599;SDS011;35385;55.668;37.508;2023-03-01T04:12:48;2.97;;;1.30;;
36599;SDS011;35385;55.668;37.508;2023-03-01T04:13:49;4.20;;;1.00;;
36599;SDS011;35385;55.668;37.508;2023-03-01T04:14:50;2.65;;;1.00;;
36599;SDS011;35385;55.668;37.508;2023-03-01T04:15:52;9.63;;;1.40;;
36599;SDS011;35385;55.668;37.508;2023-03-01T04:16:53;2.58;;;1.20;;
36599;SDS011;35385;55.668;37.508;2023-03-01T04:17:54;1.73;;;0.90;;
36599;SDS011;35385;55.668;37.508;2023-03-01T04:18:55;4.13;;;1.30;;
36599;SDS011;35385;55.668;37.508;2023-03-01T04:19:56;3.53;;;1.20;;
36599;SDS011;35385;55.668;37.508;2023-03-01T04:20:57;4.00;;;1.33;;
36599;SDS011;35385;55.668;37.508;2023-03-01T04:21:57;3.07;;;1.40;;
36599;SDS011;35385;55.668;37.508;2023-03-01T04:22:59;4.20;;;1.20;;
36599;SDS011;35385;55.668;37.508;2023-03-01T04:24:15;1.83;;;1.02;;
36599;SDS011;35385;55.668;37.508;2023-03-01T04:25:16;2.20;;;1.20;;
36599;SDS011;35385;55.668;37.508;2023-03-01T04:26:17;3.63;;;1.20;;
36599;SDS011;35385;55.668;37.508;2023-03-01T04:27:17;2.30;;;1.33;;
36599;SDS011;35385;55.668;37.508;2023-03-01T04:28:18;4.77;;;1.40;;
36599;SDS011;35385;55.668;37.508;2023-03-01T04:29:19;3.75;;;1.20;;
36599;SDS011;35385;55.668;37.508;2023-03-01T04:30:19;2.00;;;1.30;;
36599;SDS011;35385;55.668;37.508;2023-03-01T04:31:20;6.43;;;1.37;;
36599;SDS011;35385;55.668;37.508;2023-03-01T04:32:21;4.63;;;1.50;;
36599;SDS011;35385;55.668;37.508;2023-03-01T04:33:22;3.30;;;1.07;;
36599;SDS011;35385;55.668;37.508;2023-03-01T04:34:23;4.75;;;1.50;;
36599;SDS011;35385;55.668;37.508;2023-03-01T04:35:26;8.68;;;1.50;;
36599;SDS011;35385;55.668;37.508;2023-03-01T04:36:28;4.18;;;1.55;;
36599;SDS011;35385;55.668;37.508;2023-03-01T04:37:29;3.17;;;1.30;;
36599;SDS011;35385;55.668;37.508;2023-03-01T04:38:30;3.60;;;1.33;;
36599;SDS011;35385;55.668;37.508;2023-03-01T04:39:30;3.37;;;1.23;;
36599;SDS011;35385;55.668;37.508;2023-03-01T04:40:32;4.07;;;1.10;;
36599;SDS011;35385;55.668;37.508;2023-03-01T04:41:34;3.60;;;1.77;;
36599;SDS011;35385;55.668;37.508;2023-03-01T04:42:34;4.37;;;1.30;;
36599;SDS011;35385;55.668;37.508;2023-03-01T04:43:35;6.07;;;1.40;;
36599;SDS011;35385;55.668;37.508;2023-03-01T04:44:36;3.78;;;1.45;;
36599;SDS011;35385;55.668;37.508;2023-03-01T04:45:36;3.23;;;1.40;;
36599;SDS011;35385;55.668;37.508;2023-03-01T04:46:37;4.33;;;1.40;;
36599;SDS011;35385;55.668;37.508;2023-03-01T04:47:38;4.17;;;1.63;;
36599;SDS011;35385;55.668;37.508;2023-03-01T04:48:40;3.65;;;1.27;;
36599;SDS011;35385;55.668;37.508;2023-03-01T04:49:43;4.72;;;1.40;;
36599;SDS011;35385;55.668;37.508;2023-03-01T04:50:43;4.43;;;1.40;;
36599;SDS011;35385;55.668;37.508;2023-03-01T04:51:44;3.80;;;1.50;;
36599;SDS011;35385;55.668;37.508;2023-03-01T04:52:44;3.70;;;1.37;;
36599;SDS011;35385;55.668;37.508;2023-03-01T04:53:45;5.07;;;1.50;;
36599;SDS011;35385;55.668;37.508;2023-03-01T04:54:46;4.90;;;1.57;;
36599;SDS011;35385;55.668;37.508;2023-03-01T04:55:47;3.27;;;1.50;;
36599;SDS011;35385;55.668;37.508;2023-03-01T04:56:47;3.60;;;1.37;;
36599;SDS011;35385;55.668;37.508;2023-03-01T04:57:48;4.30;;;1.53;;
36599;SDS011;35385;55.668;37.508;2023-03-01T04:58:48;4.03;;;1.50;;
36599;SDS011;35385;55.668;37.508;2023-03-01T04:59:49;6.47;;;1.40;;
36599;SDS011;35385;55.668;37.508;2023-03-01T05:00:49;5.57;;;1.40;;
36599;SDS011;35385;55.668;37.508;2023-03-01T05:01:54;3.50;;;1.20;;
36599;SDS011;35385;55.668;37.508;2023-03-01T05:02:56;7.28;;;1.52;;
36599;SDS011;35385;55.668;37.508;2023-03-01T05:03:59;3.60;;;1.23;;
36599;SDS011;35385;55.668;37.508;2023-03-01T05:05:03;3.95;;;1.10;;
36599;SDS011;35385;55.668;37.508;2023-03-01T05:06:05;3.92;;;1.20;;
36599;SDS011;35385;55.668;37.508;2023-03-01T05:07:06;5.23;;;1.47;;
36599;SDS011;35385;55.668;37.508;2023-03-01T05:08:07;3.67;;;1.33;;
36599;SDS011;35385;55.668;37.508;2023-03-01T05:09:08;6.93;;;2.08;;
36599;SDS011;35385;55.668;37.508;2023-03-01T05:10:09;3.87;;;1.50;;
36599;SDS011;35385;55.668;37.508;2023-03-01T05:11:10;4.65;;;1.67;;
36599;SDS011;35385;55.668;37.508;2023-03-01T05:12:11;4.80;;;1.55;;
36599;SDS011;35385;55.668;37.508;2023-03-01T05:13:12;5.00;;;1.83;;
36599;SDS011;35385;55.668;37.508;2023-03-01T05:14:15;4.85;;;2.13;;
36599;SDS011;35385;55.668;37.508;2023-03-01T05:15:15;9.37;;;2.63;;
36599;SDS011;35385;55.668;37.508;2023-03-01T05:16:16;8.10;;;2.55;;
36599;SDS011;35385;55.668;37.508;2023-03-01T05:17:17;6.07;;;2.95;;
36599;SDS011;35385;55.668;37.508;2023-03-01T05:18:18;7.13;;;2.40;;
36599;SDS011;35385;55.668;37.508;2023-03-01T05:19:18;8.07;;;2.80;;
36599;SDS011;35385;55.668;37.508;2023-03-01T05:20:22;6.60;;;2.90;;
36599;SDS011;35385;55.668;37.508;2023-03-01T05:21:23;5.80;;;3.07;;
36599;SDS011;35385;55.668;37.508;2023-03-01T05:22:24;5.60;;;3.22;;
36599;SDS011;35385;55.668;37.508;2023-03-01T05:23:24;6.97;;;3.20;;
36599;SDS011;35385;55.668;37.508;2023-03-01T05:24:25;8.18;;;3.65;;
36599;SDS011;35385;55.668;37.508;2023-03-01T05:26:32;8.18;;;4.60;;
36599;SDS011;35385;55.668;37.508;2023-03-01T05:27:34;8.88;;;4.57;;
36599;SDS011;35385;55.668;37.508;2023-03-01T05:29:35;6.43;;;3.58;;
36599;SDS011;35385;55.668;37.508;2023-03-01T05:30:36;6.20;;;3.57;;
36599;SDS011;35385;55.668;37.508;2023-03-01T05:31:39;7.35;;;3.67;;
36599;SDS011;35385;55.668;37.508;2023-03-01T05:32:43;6.10;;;3.30;;
36599;SDS011;35385;55.668;37.508;2023-03-01T05:33:44;8.18;;;3.58;;
36599;SDS011;35385;55.668;37.508;2023-03-01T05:34:45;6.50;;;2.83;;
36599;SDS011;35385;55.668;37.508;2023-03-01T05:35:46;5.35;;;3.20;;
36599;SDS011;35385;55.668;37.508;2023-03-01T05:36:48;7.97;;;3.67;;
36599;SDS011;35385;55.668;37.508;2023-03-01T05:37:53;11.85;;;4.00;;
36599;SDS011;35385;55.668;37.508;2023-03-01T05:38:53;9.30;;;3.60;;
36599;SDS011;35385;55.668;37.508;2023-03-01T05:39:54;7.27;;;3.27;;
36599;SDS011;35385;55.668;37.508;2023-03-01T05:40:54;7.20;;;3.30;;
36599;SDS011;35385;55.668;37.508;2023-03-01T05:41:56;8.23;;;4.03;;
36599;SDS011;35385;55.668;37.508;2023-03-01T05:42:58;8.93;;;3.28;;
36599;SDS011;35385;55.668;37.508;2023-03-01T05:43:58;7.87;;;3.83;;
36599;SDS011;35385;55.668;37.508;2023-03-01T05:44:59;8.20;;;3.33;;
36599;SDS011;35385;55.668;37.508;2023-03-01T05:45:59;6.07;;;3.00;;
36599;SDS011;35385;55.668;37.508;2023-03-01T05:47:00;10.18;;;3.53;;
36599;SDS011;35385;55.668;37.508;2023-03-01T05:48:01;7.30;;;2.90;;
36599;SDS011;35385;55.668;37.508;2023-03-01T05:49:02;5.72;;;2.50;;
36599;SDS011;35385;55.668;37.508;2023-03-01T05:50:04;5.63;;;2.90;;
36599;SDS011;35385;55.668;37.508;2023-03-01T05:51:05;8.43;;;3.08;;
36599;SDS011;35385;55.668;37.508;2023-03-01T05:52:06;5.07;;;2.40;;
36599;SDS011;35385;55.668;37.508;2023-03-01T05:53:09;5.50;;;2.60;;
36599;SDS011;35385;55.668;37.508;2023-03-01T05:54:11;9.55;;;3.42;;
36599;SDS011;35385;55.668;37.508;2023-03-01T05:55:12;4.60;;;2.93;;
36599;SDS011;35385;55.668;37.508;2023-03-01T05:56:12;6.63;;;2.50;;
36599;SDS011;35385;55.668;37.508;2023-03-01T05:57:13;5.87;;;2.37;;
36599;SDS011;35385;55.668;37.508;2023-03-01T05:58:15;4.25;;;2.17;;
36599;SDS011;35385;55.668;37.508;2023-03-01T05:59:17;7.85;;;2.53;;
36599;SDS011;35385;55.668;37.508;2023-03-01T06:00:19;5.63;;;2.43;;
36599;SDS011;35385;55.668;37.508;2023-03-01T06:01:24;8.10;;;2.50;;
36599;SDS011;35385;55.668;37.508;2023-03-01T06:02:24;6.73;;;2.40;;
36599;SDS011;35385;55.668;37.508;2023-03-01T06:03:25;8.40;;;2.60;;
36599;SDS011;35385;55.668;37.508;2023-03-01T06:04:25;10.23;;;2.60;;
36599;SDS011;35385;55.668;37.508;2023-03-01T06:05:26;6.33;;;2.53;;
36599;SDS011;35385;55.668;37.508;2023-03-01T06:06:27;5.80;;;2.80;;
36599;SDS011;35385;55.668;37.508;2023-03-01T06:07:28;4.50;;;2.23;;
36599;SDS011;35385;55.668;37.508;2023-03-01T06:08:29;8.50;;;2.80;;
36599;SDS011;35385;55.668;37.508;2023-03-01T06:09:30;5.25;;;2.15;;
36599;SDS011;35385;55.668;37.508;2023-03-01T06:10:30;5.17;;;2.43;;
36599;SDS011;35385;55.668;37.508;2023-03-01T06:11:31;8.67;;;2.83;;
36599;SDS011;35385;55.668;37.508;2023-03-01T06:12:34;7.35;;;2.72;;
36599;SDS011;35385;55.668;37.508;2023-03-01T06:13:36;7.90;;;4.78;;
36599;SDS011;35385;55.668;37.508;2023-03-01T06:14:36;7.00;;;2.57;;
36599;SDS011;35385;55.668;37.508;2023-03-01T06:15:38;7.75;;;2.72;;
36599;SDS011;35385;55.668;37.508;2023-03-01T06:16:38;12.90;;;4.50;;
36599;SDS011;35385;55.668;37.508;2023-03-01T06:17:40;5.33;;;2.83;;
36599;SDS011;35385;55.668;37.508;2023-03-01T06:18:41;5.55;;;2.25;;
36599;SDS011;35385;55.668;37.508;2023-03-01T06:19:42;6.85;;;2.70;;
36599;SDS011;35385;55.668;37.508;2023-03-01T06:20:43;7.50;;;2.43;;
36599;SDS011;35385;55.668;37.508;2023-03-01T06:21:43;8.43;;;2.90;;
36599;SDS011;35385;55.668;37.508;2023-03-01T06:22:44;5.93;;;2.30;;
36599;SDS011;35385;55.668;37.508;2023-03-01T06:23:46;4.15;;;2.40;;
36599;SDS011;35385;55.668;37.508;2023-03-01T06:24:46;7.27;;;2.30;;
36599;SDS011;35385;55.668;37.508;2023-03-01T06:25:47;3.53;;;2.07;;
36599;SDS011;35385;55.668;37.508;2023-03-01T06:26:48;5.07;;;2.27;;
36599;SDS011;35385;55.668;37.508;2023-03-01T06:27:48;4.67;;;2.10;;
36599;SDS011;35385;55.668;37.508;2023-03-01T06:28:49;5.55;;;1.95;;
36599;SDS011;35385;55.668;37.508;2023-03-01T06:29:50;7.03;;;2.30;;
36599;SDS011;35385;55.668;37.508;2023-03-01T06:30:50;13.02;;;3.58;;